sensor_id;sensor_type;location;lat;lon;timestamp;P1;durP1;ratioP1;P2;durP2;ratioP2
37973;SDS011;23796;51.458;7.000;2023-01-30T00:00:54;22.73;;;17.73;;
37973;SDS011;23796;51.458;7.000;2023-01-30T00:03:22;27.52;;;17.60;;
37973;SDS011;23796;51.458;7.000;2023-01-30T00:05:49;22.50;;;17.98;;
37973;SDS011;23796;51.458;7.000;2023-01-30T00:08:15;23.02;;;17.33;;
37973;SDS011;23796;51.458;7.000;2023-01-30T00:10:43;24.08;;;17.15;;
37973;SDS011;23796;51.458;7.000;2023-01-30T00:13:11;22.30;;;16.80;;
37973;SDS011;23796;51.458;7.000;2023-01-30T00:15:40;21.67;;;16.40;;
37973;SDS011;23796;51.458;7.000;2023-01-30T00:18:06;22.23;;;17.05;;
37973;SDS011;23796;51.458;7.000;2023-01-30T00:20:32;21.52;;;16.77;;
37973;SDS011;23796;51.458;7.000;2023-01-30T00:22:58;20.50;;;15.90;;
37973;SDS011;23796;51.458;7.000;2023-01-30T00:25:24;23.20;;;17.13;;
37973;SDS011;23796;51.458;7.000;2023-01-30T00:27:50;24.05;;;17.52;;
37973;SDS011;23796;51.458;7.000;2023-01-30T00:30:16;23.45;;;16.92;;
37973;SDS011;23796;51.458;7.000;2023-01-30T00:32:42;21.88;;;16.13;;
37973;SDS011;23796;51.458;7.000;2023-01-30T00:35:08;21.48;;;16.30;;
37973;SDS011;23796;51.458;7.000;2023-01-30T00:37:38;20.70;;;16.40;;
37973;SDS011;23796;51.458;7.000;2023-01-30T00:40:06;22.65;;;16.88;;
37973;SDS011;23796;51.458;7.000;2023-01-30T00:42:32;23.27;;;17.33;;
37973;SDS011;23796;51.458;7.000;2023-01-30T00:45:16;23.52;;;17.83;;
37973;SDS011;23796;51.458;7.000;2023-01-30T00:48:03;20.60;;;15.75;;
37973;SDS011;23796;51.458;7.000;2023-01-30T00:50:31;20.17;;;15.98;;
37973;SDS011;23796;51.458;7.000;2023-01-30T00:53:09;22.23;;;16.13;;
37973;SDS011;23796;51.458;7.000;2023-01-30T00:55:35;21.10;;;15.77;;
37973;SDS011;23796;51.458;7.000;2023-01-30T00:58:01;23.13;;;17.10;;
37973;SDS011;23796;51.458;7.000;2023-01-30T01:00:27;21.35;;;16.08;;
37973;SDS011;23796;51.458;7.000;2023-01-30T01:02:53;21.67;;;17.25;;
37973;SDS011;23796;51.458;7.000;2023-01-30T01:05:18;22.98;;;16.50;;
37973;SDS011;23796;51.458;7.000;2023-01-30T01:07:44;23.05;;;17.40;;
37973;SDS011;23796;51.458;7.000;2023-01-30T01:10:10;23.05;;;17.70;;
37973;SDS011;23796;51.458;7.000;2023-01-30T01:12:41;20.58;;;16.10;;
37973;SDS011;23796;51.458;7.000;2023-01-30T01:15:08;20.55;;;16.00;;
37973;SDS011;23796;51.458;7.000;2023-01-30T01:17:35;22.63;;;16.33;;
37973;SDS011;23796;51.458;7.000;2023-01-30T01:20:02;20.60;;;16.10;;
37973;SDS011;23796;51.458;7.000;2023-01-30T01:22:28;21.20;;;16.63;;
37973;SDS011;23796;51.458;7.000;2023-01-30T01:24:54;20.65;;;15.85;;
37973;SDS011;23796;51.458;7.000;2023-01-30T01:27:19;20.75;;;15.57;;
37973;SDS011;23796;51.458;7.000;2023-01-30T01:29:45;21.75;;;16.95;;
37973;SDS011;23796;51.458;7.000;2023-01-30T01:32:10;21.80;;;16.92;;
37973;SDS011;23796;51.458;7.000;2023-01-30T01:34:36;21.45;;;17.63;;
37973;SDS011;23796;51.458;7.000;2023-01-30T01:37:04;20.23;;;16.13;;
37973;SDS011;23796;51.458;7.000;2023-01-30T01:39:30;20.45;;;16.30;;
37973;SDS011;23796;51.458;7.000;2023-01-30T01:42:14;21.52;;;16.83;;
37973;SDS011;23796;51.458;7.000;2023-01-30T01:47:35;20.80;;;16.02;;
37973;SDS011;23796;51.458;7.000;2023-01-30T01:50:05;20.00;;;16.13;;
37973;SDS011;23796;51.458;7.000;2023-01-30T01:52:38;20.98;;;16.45;;
37973;SDS011;23796;51.458;7.000;2023-01-30T01:55:07;21.92;;;17.55;;
37973;SDS011;23796;51.458;7.000;2023-01-30T01:57:40;20.65;;;16.77;;
37973;SDS011;23796;51.458;7.000;2023-01-30T02:00:13;20.33;;;15.93;;
37973;SDS011;23796;51.458;7.000;2023-01-30T02:02:56;19.75;;;15.95;;
37973;SDS011;23796;51.458;7.000;2023-01-30T02:05:37;20.08;;;15.82;;
37973;SDS011;23796;51.458;7.000;2023-01-30T02:08:17;21.58;;;17.05;;
37973;SDS011;23796;51.458;7.000;2023-01-30T02:13:22;21.48;;;15.95;;
37973;SDS011;23796;51.458;7.000;2023-01-30T02:15:50;20.73;;;16.55;;
37973;SDS011;23796;51.458;7.000;2023-01-30T02:18:18;20.02;;;16.30;;
37973;SDS011;23796;51.458;7.000;2023-01-30T02:20:51;19.83;;;14.88;;
37973;SDS011;23796;51.458;7.000;2023-01-30T02:37:52;19.30;;;16.10;;
37973;SDS011;23796;51.458;7.000;2023-01-30T02:41:43;21.13;;;15.95;;
37973;SDS011;23796;51.458;7.000;2023-01-30T02:46:25;20.25;;;15.82;;
37973;SDS011;23796;51.458;7.000;2023-01-30T02:49:22;18.92;;;14.80;;
37973;SDS011;23796;51.458;7.000;2023-01-30T02:51:50;17.52;;;14.63;;
37973;SDS011;23796;51.458;7.000;2023-01-30T02:54:18;19.90;;;15.98;;
37973;SDS011;23796;51.458;7.000;2023-01-30T02:56:51;20.13;;;16.05;;
37973;SDS011;23796;51.458;7.000;2023-01-30T02:59:20;19.60;;;15.55;;
37973;SDS011;23796;51.458;7.000;2023-01-30T03:12:32;19.08;;;15.00;;
37973;SDS011;23796;51.458;7.000;2023-01-30T03:15:16;18.92;;;15.32;;
37973;SDS011;23796;51.458;7.000;2023-01-30T03:17:51;19.75;;;15.05;;
37973;SDS011;23796;51.458;7.000;2023-01-30T03:20:17;20.50;;;15.35;;
37973;SDS011;23796;51.458;7.000;2023-01-30T03:22:46;20.65;;;15.60;;
37973;SDS011;23796;51.458;7.000;2023-01-30T03:25:14;20.25;;;15.27;;
37973;SDS011;23796;51.458;7.000;2023-01-30T03:27:44;18.73;;;15.82;;
37973;SDS011;23796;51.458;7.000;2023-01-30T03:30:10;19.67;;;15.55;;
37973;SDS011;23796;51.458;7.000;2023-01-30T03:32:39;20.70;;;16.63;;
37973;SDS011;23796;51.458;7.000;2023-01-30T03:35:04;20.77;;;15.73;;
37973;SDS011;23796;51.458;7.000;2023-01-30T03:37:33;20.40;;;16.00;;
37973;SDS011;23796;51.458;7.000;2023-01-30T03:39:59;19.40;;;16.30;;
37973;SDS011;23796;51.458;7.000;2023-01-30T03:42:24;24.73;;;15.88;;
37973;SDS011;23796;51.458;7.000;2023-01-30T03:44:50;22.60;;;16.17;;
37973;SDS011;23796;51.458;7.000;2023-01-30T03:47:16;19.58;;;15.02;;
37973;SDS011;23796;51.458;7.000;2023-01-30T03:49:41;19.08;;;14.27;;
37973;SDS011;23796;51.458;7.000;2023-01-30T03:52:07;20.67;;;16.05;;
37973;SDS011;23796;51.458;7.000;2023-01-30T03:54:33;18.08;;;14.57;;
37973;SDS011;23796;51.458;7.000;2023-01-30T03:57:00;20.15;;;15.48;;
37973;SDS011;23796;51.458;7.000;2023-01-30T03:59:26;20.40;;;16.00;;
37973;SDS011;23796;51.458;7.000;2023-01-30T04:01:52;19.17;;;16.10;;
37973;SDS011;23796;51.458;7.000;2023-01-30T04:04:20;20.67;;;16.40;;
37973;SDS011;23796;51.458;7.000;2023-01-30T04:06:49;19.45;;;15.25;;
37973;SDS011;23796;51.458;7.000;2023-01-30T04:09:15;21.70;;;16.85;;
37973;SDS011;23796;51.458;7.000;2023-01-30T04:11:41;20.25;;;16.20;;
37973;SDS011;23796;51.458;7.000;2023-01-30T04:14:09;22.48;;;16.63;;
37973;SDS011;23796;51.458;7.000;2023-01-30T04:16:37;23.73;;;16.35;;
37973;SDS011;23796;51.458;7.000;2023-01-30T04:19:03;20.92;;;16.50;;
37973;SDS011;23796;51.458;7.000;2023-01-30T04:21:30;20.92;;;16.88;;
37973;SDS011;23796;51.458;7.000;2023-01-30T04:23:56;22.55;;;17.33;;
37973;SDS011;23796;51.458;7.000;2023-01-30T04:26:22;19.23;;;14.93;;
37973;SDS011;23796;51.458;7.000;2023-01-30T04:28:47;21.67;;;17.00;;
37973;SDS011;23796;51.458;7.000;2023-01-30T04:31:13;17.85;;;15.50;;
37973;SDS011;23796;51.458;7.000;2023-01-30T04:33:44;19.40;;;16.92;;
37973;SDS011;23796;51.458;7.000;2023-01-30T04:36:10;21.77;;;16.13;;
37973;SDS011;23796;51.458;7.000;2023-01-30T04:38:38;21.30;;;16.83;;
37973;SDS011;23796;51.458;7.000;2023-01-30T04:41:06;21.10;;;16.25;;
37973;SDS011;23796;51.458;7.000;2023-01-30T04:43:34;20.73;;;17.20;;
37973;SDS011;23796;51.458;7.000;2023-01-30T04:46:00;21.48;;;16.27;;
37973;SDS011;23796;51.458;7.000;2023-01-30T04:48:25;20.50;;;16.25;;
37973;SDS011;23796;51.458;7.000;2023-01-30T04:50:52;20.95;;;15.65;;
37973;SDS011;23796;51.458;7.000;2023-01-30T04:53:19;19.58;;;15.75;;
37973;SDS011;23796;51.458;7.000;2023-01-30T04:55:48;19.63;;;15.40;;
37973;SDS011;23796;51.458;7.000;2023-01-30T04:58:16;17.65;;;14.45;;
37973;SDS011;23796;51.458;7.000;2023-01-30T05:00:45;19.05;;;14.75;;
37973;SDS011;23796;51.458;7.000;2023-01-30T05:03:12;17.52;;;14.30;;
37973;SDS011;23796;51.458;7.000;2023-01-30T05:05:38;18.95;;;13.85;;
37973;SDS011;23796;51.458;7.000;2023-01-30T05:08:04;16.70;;;14.38;;
37973;SDS011;23796;51.458;7.000;2023-01-30T05:10:32;17.90;;;15.25;;
37973;SDS011;23796;51.458;7.000;2023-01-30T05:13:01;16.13;;;13.50;;
37973;SDS011;23796;51.458;7.000;2023-01-30T05:15:28;18.55;;;13.57;;
37973;SDS011;23796;51.458;7.000;2023-01-30T05:17:54;17.63;;;13.65;;
37973;SDS011;23796;51.458;7.000;2023-01-30T05:20:19;15.27;;;13.10;;
37973;SDS011;23796;51.458;7.000;2023-01-30T05:22:45;15.48;;;13.57;;
37973;SDS011;23796;51.458;7.000;2023-01-30T05:25:11;15.63;;;13.18;;
37973;SDS011;23796;51.458;7.000;2023-01-30T05:27:36;14.68;;;12.63;;
37973;SDS011;23796;51.458;7.000;2023-01-30T05:30:03;14.68;;;11.73;;
37973;SDS011;23796;51.458;7.000;2023-01-30T05:32:29;18.17;;;13.45;;
37973;SDS011;23796;51.458;7.000;2023-01-30T05:34:55;14.30;;;12.82;;
37973;SDS011;23796;51.458;7.000;2023-01-30T05:37:23;15.85;;;12.88;;
37973;SDS011;23796;51.458;7.000;2023-01-30T05:39:49;14.45;;;11.15;;
37973;SDS011;23796;51.458;7.000;2023-01-30T05:42:14;17.45;;;13.32;;
37973;SDS011;23796;51.458;7.000;2023-01-30T05:44:40;15.55;;;13.20;;
37973;SDS011;23796;51.458;7.000;2023-01-30T05:47:08;14.45;;;12.25;;
37973;SDS011;23796;51.458;7.000;2023-01-30T05:49:36;15.82;;;12.20;;
37973;SDS011;23796;51.458;7.000;2023-01-30T05:52:02;14.32;;;11.98;;
37973;SDS011;23796;51.458;7.000;2023-01-30T05:54:27;14.27;;;12.77;;
37973;SDS011;23796;51.458;7.000;2023-01-30T05:56:53;14.00;;;12.02;;
37973;SDS011;23796;51.458;7.000;2023-01-30T05:59:18;16.05;;;12.48;;
37973;SDS011;23796;51.458;7.000;2023-01-30T06:01:46;15.32;;;12.18;;
37973;SDS011;23796;51.458;7.000;2023-01-30T06:04:14;14.27;;;10.95;;
37973;SDS011;23796;51.458;7.000;2023-01-30T06:06:40;14.65;;;12.48;;
37973;SDS011;23796;51.458;7.000;2023-01-30T06:09:08;15.27;;;12.55;;
37973;SDS011;23796;51.458;7.000;2023-01-30T06:11:34;17.65;;;12.55;;
37973;SDS011;23796;51.458;7.000;2023-01-30T06:14:00;14.88;;;12.73;;
37973;SDS011;23796;51.458;7.000;2023-01-30T06:16:25;14.85;;;12.98;;
37973;SDS011;23796;51.458;7.000;2023-01-30T06:18:53;14.07;;;11.60;;
37973;SDS011;23796;51.458;7.000;2023-01-30T06:21:19;13.63;;;12.10;;
37973;SDS011;23796;51.458;7.000;2023-01-30T06:23:44;14.88;;;12.85;;
37973;SDS011;23796;51.458;7.000;2023-01-30T06:26:13;13.57;;;10.93;;
37973;SDS011;23796;51.458;7.000;2023-01-30T06:28:38;15.63;;;11.43;;
37973;SDS011;23796;51.458;7.000;2023-01-30T06:31:06;15.50;;;11.13;;
37973;SDS011;23796;51.458;7.000;2023-01-30T06:33:37;15.15;;;11.40;;
37973;SDS011;23796;51.458;7.000;2023-01-30T06:36:05;16.42;;;11.93;;
37973;SDS011;23796;51.458;7.000;2023-01-30T06:38:31;14.40;;;11.43;;
37973;SDS011;23796;51.458;7.000;2023-01-30T06:41:01;13.63;;;10.82;;
37973;SDS011;23796;51.458;7.000;2023-01-30T06:43:29;16.60;;;12.82;;
37973;SDS011;23796;51.458;7.000;2023-01-30T06:45:58;15.23;;;11.25;;
37973;SDS011;23796;51.458;7.000;2023-01-30T06:48:23;15.88;;;12.00;;
37973;SDS011;23796;51.458;7.000;2023-01-30T06:50:51;14.15;;;11.13;;
37973;SDS011;23796;51.458;7.000;2023-01-30T06:53:17;13.32;;;11.30;;
37973;SDS011;23796;51.458;7.000;2023-01-30T06:55:45;17.58;;;13.57;;
37973;SDS011;23796;51.458;7.000;2023-01-30T06:58:13;14.88;;;11.35;;
37973;SDS011;23796;51.458;7.000;2023-01-30T07:00:40;13.60;;;10.98;;
37973;SDS011;23796;51.458;7.000;2023-01-30T07:03:12;15.63;;;10.32;;
37973;SDS011;23796;51.458;7.000;2023-01-30T07:05:40;16.20;;;10.75;;
37973;SDS011;23796;51.458;7.000;2023-01-30T07:08:06;13.50;;;10.27;;
37973;SDS011;23796;51.458;7.000;2023-01-30T07:10:33;14.90;;;10.52;;
37973;SDS011;23796;51.458;7.000;2023-01-30T07:12:59;15.27;;;10.57;;
37973;SDS011;23796;51.458;7.000;2023-01-30T07:15:26;14.48;;;10.30;;
37973;SDS011;23796;51.458;7.000;2023-01-30T07:17:51;15.18;;;10.48;;
37973;SDS011;23796;51.458;7.000;2023-01-30T07:20:17;15.07;;;9.20;;
37973;SDS011;23796;51.458;7.000;2023-01-30T07:22:54;11.15;;;8.63;;
37973;SDS011;23796;51.458;7.000;2023-01-30T07:25:21;16.00;;;9.77;;
37973;SDS011;23796;51.458;7.000;2023-01-30T07:27:51;12.18;;;8.27;;
37973;SDS011;23796;51.458;7.000;2023-01-30T07:30:17;12.85;;;8.07;;
37973;SDS011;23796;51.458;7.000;2023-01-30T07:32:43;16.13;;;8.85;;
37973;SDS011;23796;51.458;7.000;2023-01-30T07:35:13;15.00;;;7.53;;
37973;SDS011;23796;51.458;7.000;2023-01-30T07:37:41;13.40;;;7.38;;
37973;SDS011;23796;51.458;7.000;2023-01-30T07:40:12;11.65;;;7.60;;
37973;SDS011;23796;51.458;7.000;2023-01-30T07:42:37;11.68;;;7.82;;
37973;SDS011;23796;51.458;7.000;2023-01-30T07:45:05;12.00;;;7.10;;
37973;SDS011;23796;51.458;7.000;2023-01-30T07:47:36;14.02;;;7.70;;
37973;SDS011;23796;51.458;7.000;2023-01-30T07:50:02;11.77;;;6.65;;
37973;SDS011;23796;51.458;7.000;2023-01-30T07:52:30;13.88;;;6.25;;
37973;SDS011;23796;51.458;7.000;2023-01-30T07:54:56;12.60;;;5.88;;
37973;SDS011;23796;51.458;7.000;2023-01-30T07:57:24;10.30;;;6.10;;
37973;SDS011;23796;51.458;7.000;2023-01-30T07:59:50;11.40;;;5.07;;
37973;SDS011;23796;51.458;7.000;2023-01-30T08:02:20;16.75;;;5.78;;
37973;SDS011;23796;51.458;7.000;2023-01-30T08:04:45;9.50;;;5.00;;
37973;SDS011;23796;51.458;7.000;2023-01-30T08:07:11;10.65;;;5.22;;
37973;SDS011;23796;51.458;7.000;2023-01-30T08:09:36;9.63;;;4.22;;
37973;SDS011;23796;51.458;7.000;2023-01-30T08:12:02;11.13;;;4.55;;
37973;SDS011;23796;51.458;7.000;2023-01-30T08:14:30;14.50;;;5.20;;
37973;SDS011;23796;51.458;7.000;2023-01-30T08:16:58;10.70;;;4.18;;
37973;SDS011;23796;51.458;7.000;2023-01-30T08:19:24;11.45;;;4.90;;
37973;SDS011;23796;51.458;7.000;2023-01-30T08:21:49;10.38;;;4.32;;
37973;SDS011;23796;51.458;7.000;2023-01-30T08:24:17;13.38;;;5.28;;
37973;SDS011;23796;51.458;7.000;2023-01-30T08:26:46;13.07;;;4.47;;
37973;SDS011;23796;51.458;7.000;2023-01-30T08:29:13;13.73;;;4.90;;
37973;SDS011;23796;51.458;7.000;2023-01-30T08:31:39;13.63;;;4.05;;
37973;SDS011;23796;51.458;7.000;2023-01-30T08:34:04;12.77;;;4.68;;
37973;SDS011;23796;51.458;7.000;2023-01-30T08:36:30;13.07;;;4.88;;
37973;SDS011;23796;51.458;7.000;2023-01-30T08:38:56;14.45;;;4.78;;
37973;SDS011;23796;51.458;7.000;2023-01-30T08:41:22;9.32;;;3.90;;
37973;SDS011;23796;51.458;7.000;2023-01-30T08:43:47;16.95;;;3.90;;
37973;SDS011;23796;51.458;7.000;2023-01-30T08:46:13;15.98;;;4.05;;
37973;SDS011;23796;51.458;7.000;2023-01-30T08:48:39;16.95;;;3.75;;
37973;SDS011;23796;51.458;7.000;2023-01-30T08:51:07;26.50;;;4.57;;
37973;SDS011;23796;51.458;7.000;2023-01-30T08:53:32;19.23;;;4.15;;
37973;SDS011;23796;51.458;7.000;2023-01-30T08:56:00;16.75;;;3.05;;
37973;SDS011;23796;51.458;7.000;2023-01-30T08:58:26;10.60;;;3.30;;
37973;SDS011;23796;51.458;7.000;2023-01-30T09:00:51;15.50;;;2.88;;
37973;SDS011;23796;51.458;7.000;2023-01-30T09:03:18;11.45;;;3.67;;
37973;SDS011;23796;51.458;7.000;2023-01-30T09:05:44;12.57;;;4.13;;
37973;SDS011;23796;51.458;7.000;2023-01-30T09:08:12;11.20;;;3.25;;
37973;SDS011;23796;51.458;7.000;2023-01-30T09:10:37;22.55;;;4.38;;
37973;SDS011;23796;51.458;7.000;2023-01-30T09:13:03;12.05;;;3.53;;
37973;SDS011;23796;51.458;7.000;2023-01-30T09:15:31;13.30;;;3.42;;
37973;SDS011;23796;51.458;7.000;2023-01-30T09:17:59;13.15;;;3.35;;
37973;SDS011;23796;51.458;7.000;2023-01-30T09:20:24;14.00;;;3.25;;
37973;SDS011;23796;51.458;7.000;2023-01-30T09:22:50;9.77;;;2.80;;
37973;SDS011;23796;51.458;7.000;2023-01-30T09:25:16;10.68;;;2.67;;
37973;SDS011;23796;51.458;7.000;2023-01-30T09:27:41;10.27;;;2.67;;
37973;SDS011;23796;51.458;7.000;2023-01-30T09:30:08;35.33;;;4.82;;
37973;SDS011;23796;51.458;7.000;2023-01-30T09:32:34;18.00;;;4.30;;
37973;SDS011;23796;51.458;7.000;2023-01-30T09:35:03;15.15;;;4.18;;
37973;SDS011;23796;51.458;7.000;2023-01-30T09:37:32;23.27;;;4.32;;
37973;SDS011;23796;51.458;7.000;2023-01-30T09:39:58;16.60;;;3.42;;
37973;SDS011;23796;51.458;7.000;2023-01-30T09:51:06;18.95;;;4.10;;
37973;SDS011;23796;51.458;7.000;2023-01-30T09:56:28;13.00;;;3.80;;
37973;SDS011;23796;51.458;7.000;2023-01-30T09:58:55;15.73;;;3.33;;
37973;SDS011;23796;51.458;7.000;2023-01-30T10:04:30;14.27;;;3.33;;
37973;SDS011;23796;51.458;7.000;2023-01-30T10:07:09;13.82;;;4.45;;
37973;SDS011;23796;51.458;7.000;2023-01-30T10:09:53;16.42;;;4.07;;
37973;SDS011;23796;51.458;7.000;2023-01-30T10:15:32;12.13;;;4.45;;
37973;SDS011;23796;51.458;7.000;2023-01-30T10:26:00;15.15;;;3.90;;
37973;SDS011;23796;51.458;7.000;2023-01-30T10:28:37;16.80;;;3.53;;
37973;SDS011;23796;51.458;7.000;2023-01-30T10:31:09;15.27;;;3.95;;
37973;SDS011;23796;51.458;7.000;2023-01-30T10:33:42;14.40;;;3.63;;
37973;SDS011;23796;51.458;7.000;2023-01-30T10:39:27;13.98;;;3.05;;
37973;SDS011;23796;51.458;7.000;2023-01-30T10:42:04;19.42;;;3.72;;
37973;SDS011;23796;51.458;7.000;2023-01-30T10:44:35;16.45;;;2.85;;
37973;SDS011;23796;51.458;7.000;2023-01-30T11:05:52;15.70;;;3.25;;
37973;SDS011;23796;51.458;7.000;2023-01-30T11:08:51;14.50;;;4.50;;
37973;SDS011;23796;51.458;7.000;2023-01-30T11:11:22;14.55;;;3.30;;
37973;SDS011;23796;51.458;7.000;2023-01-30T11:14:05;19.15;;;3.83;;
37973;SDS011;23796;51.458;7.000;2023-01-30T11:16:34;10.85;;;3.30;;
37973;SDS011;23796;51.458;7.000;2023-01-30T11:19:08;10.38;;;2.45;;
37973;SDS011;23796;51.458;7.000;2023-01-30T11:21:34;18.48;;;4.65;;
37973;SDS011;23796;51.458;7.000;2023-01-30T11:24:04;16.13;;;4.18;;
37973;SDS011;23796;51.458;7.000;2023-01-30T11:26:41;14.25;;;3.30;;
37973;SDS011;23796;51.458;7.000;2023-01-30T11:31:50;12.73;;;3.15;;
37973;SDS011;23796;51.458;7.000;2023-01-30T11:34:17;15.68;;;3.50;;
37973;SDS011;23796;51.458;7.000;2023-01-30T11:36:45;17.80;;;4.10;;
37973;SDS011;23796;51.458;7.000;2023-01-30T11:41:42;13.85;;;2.92;;
37973;SDS011;23796;51.458;7.000;2023-01-30T11:44:27;11.38;;;3.17;;
37973;SDS011;23796;51.458;7.000;2023-01-30T11:49:19;18.35;;;4.07;;
37973;SDS011;23796;51.458;7.000;2023-01-30T11:51:46;12.30;;;3.03;;
37973;SDS011;23796;51.458;7.000;2023-01-30T11:57:13;11.43;;;3.00;;
37973;SDS011;23796;51.458;7.000;2023-01-30T11:59:44;15.30;;;3.58;;
37973;SDS011;23796;51.458;7.000;2023-01-30T12:02:17;15.13;;;3.37;;
37973;SDS011;23796;51.458;7.000;2023-01-30T12:04:59;14.60;;;3.65;;
37973;SDS011;23796;51.458;7.000;2023-01-30T12:07:29;15.55;;;4.43;;
37973;SDS011;23796;51.458;7.000;2023-01-30T12:09:58;13.27;;;3.88;;
37973;SDS011;23796;51.458;7.000;2023-01-30T12:15:40;13.35;;;3.58;;
37973;SDS011;23796;51.458;7.000;2023-01-30T12:28:51;12.52;;;3.38;;
37973;SDS011;23796;51.458;7.000;2023-01-30T12:31:40;17.42;;;3.42;;
37973;SDS011;23796;51.458;7.000;2023-01-30T12:34:10;12.30;;;3.88;;
37973;SDS011;23796;51.458;7.000;2023-01-30T13:01:15;16.67;;;3.95;;
37973;SDS011;23796;51.458;7.000;2023-01-30T13:04:23;16.80;;;3.40;;
37973;SDS011;23796;51.458;7.000;2023-01-30T13:06:53;17.40;;;4.22;;
37973;SDS011;23796;51.458;7.000;2023-01-30T13:22:55;16.42;;;4.07;;
37973;SDS011;23796;51.458;7.000;2023-01-30T13:31:20;11.73;;;3.85;;
37973;SDS011;23796;51.458;7.000;2023-01-30T13:33:50;15.50;;;3.85;;
37973;SDS011;23796;51.458;7.000;2023-01-30T13:36:48;15.55;;;3.63;;
37973;SDS011;23796;51.458;7.000;2023-01-30T13:42:09;16.23;;;3.38;;
37973;SDS011;23796;51.458;7.000;2023-01-30T13:44:49;18.77;;;4.15;;
37973;SDS011;23796;51.458;7.000;2023-01-30T13:50:35;11.90;;;3.42;;
37973;SDS011;23796;51.458;7.000;2023-01-30T13:55:43;15.43;;;4.03;;
37973;SDS011;23796;51.458;7.000;2023-01-30T14:00:54;17.27;;;4.65;;
37973;SDS011;23796;51.458;7.000;2023-01-30T14:03:32;12.43;;;3.05;;
37973;SDS011;23796;51.458;7.000;2023-01-30T14:06:00;14.77;;;3.58;;
37973;SDS011;23796;51.458;7.000;2023-01-30T14:14:29;14.85;;;4.53;;
37973;SDS011;23796;51.458;7.000;2023-01-30T14:17:06;14.88;;;3.50;;
37973;SDS011;23796;51.458;7.000;2023-01-30T14:19:56;15.55;;;4.20;;
37973;SDS011;23796;51.458;7.000;2023-01-30T14:22:27;11.82;;;3.17;;
37973;SDS011;23796;51.458;7.000;2023-01-30T14:27:47;16.63;;;4.57;;
37973;SDS011;23796;51.458;7.000;2023-01-30T14:38:35;19.90;;;3.88;;
37973;SDS011;23796;51.458;7.000;2023-01-30T14:53:49;18.33;;;4.30;;
37973;SDS011;23796;51.458;7.000;2023-01-30T14:56:15;13.88;;;3.78;;
37973;SDS011;23796;51.458;7.000;2023-01-30T14:58:58;15.00;;;3.53;;
37973;SDS011;23796;51.458;7.000;2023-01-30T15:01:27;15.27;;;3.70;;
37973;SDS011;23796;51.458;7.000;2023-01-30T15:10:10;16.90;;;3.78;;
37973;SDS011;23796;51.458;7.000;2023-01-30T15:15:31;15.05;;;3.28;;
37973;SDS011;23796;51.458;7.000;2023-01-30T15:26:16;13.95;;;3.80;;
37973;SDS011;23796;51.458;7.000;2023-01-30T15:31:27;16.00;;;4.53;;
37973;SDS011;23796;51.458;7.000;2023-01-30T15:33:53;17.13;;;3.60;;
37973;SDS011;23796;51.458;7.000;2023-01-30T15:41:44;15.82;;;3.83;;
37973;SDS011;23796;51.458;7.000;2023-01-30T15:52:40;12.32;;;3.70;;
37973;SDS011;23796;51.458;7.000;2023-01-30T15:55:19;17.58;;;3.50;;
37973;SDS011;23796;51.458;7.000;2023-01-30T15:57:52;11.25;;;2.95;;
37973;SDS011;23796;51.458;7.000;2023-01-30T16:00:27;17.20;;;5.68;;
37973;SDS011;23796;51.458;7.000;2023-01-30T16:03:10;17.55;;;4.30;;
37973;SDS011;23796;51.458;7.000;2023-01-30T16:05:45;20.38;;;4.25;;
37973;SDS011;23796;51.458;7.000;2023-01-30T16:08:17;14.43;;;3.30;;
37973;SDS011;23796;51.458;7.000;2023-01-30T16:10:46;16.85;;;4.10;;
37973;SDS011;23796;51.458;7.000;2023-01-30T16:13:15;13.98;;;4.20;;
37973;SDS011;23796;51.458;7.000;2023-01-30T16:15:50;14.23;;;3.55;;
37973;SDS011;23796;51.458;7.000;2023-01-30T16:18:28;17.85;;;5.07;;
37973;SDS011;23796;51.458;7.000;2023-01-30T16:21:03;15.95;;;4.05;;
37973;SDS011;23796;51.458;7.000;2023-01-30T16:25:56;18.45;;;4.57;;
37973;SDS011;23796;51.458;7.000;2023-01-30T16:28:24;13.30;;;3.20;;
37973;SDS011;23796;51.458;7.000;2023-01-30T16:31:00;16.55;;;3.70;;
37973;SDS011;23796;51.458;7.000;2023-01-30T16:33:29;20.10;;;3.97;;
37973;SDS011;23796;51.458;7.000;2023-01-30T16:36:05;20.80;;;5.10;;
37973;SDS011;23796;51.458;7.000;2023-01-30T16:38:51;21.13;;;4.53;;
37973;SDS011;23796;51.458;7.000;2023-01-30T16:41:32;17.58;;;3.75;;
37973;SDS011;23796;51.458;7.000;2023-01-30T16:44:17;17.10;;;4.82;;
37973;SDS011;23796;51.458;7.000;2023-01-30T16:55:22;17.75;;;4.22;;
37973;SDS011;23796;51.458;7.000;2023-01-30T16:57:57;14.93;;;3.70;;
37973;SDS011;23796;51.458;7.000;2023-01-30T17:00:31;13.75;;;3.85;;
37973;SDS011;23796;51.458;7.000;2023-01-30T17:03:05;17.30;;;4.88;;
37973;SDS011;23796;51.458;7.000;2023-01-30T17:05:43;15.73;;;3.95;;
37973;SDS011;23796;51.458;7.000;2023-01-30T17:11:08;14.63;;;3.70;;
37973;SDS011;23796;51.458;7.000;2023-01-30T17:13:36;17.30;;;4.60;;
37973;SDS011;23796;51.458;7.000;2023-01-30T17:16:24;17.63;;;4.35;;
37973;SDS011;23796;51.458;7.000;2023-01-30T17:18:54;18.65;;;4.18;;
37973;SDS011;23796;51.458;7.000;2023-01-30T17:21:23;16.50;;;3.65;;
37973;SDS011;23796;51.458;7.000;2023-01-30T17:23:55;16.52;;;3.90;;
37973;SDS011;23796;51.458;7.000;2023-01-30T17:26:24;17.52;;;4.68;;
37973;SDS011;23796;51.458;7.000;2023-01-30T17:28:52;17.42;;;4.57;;
37973;SDS011;23796;51.458;7.000;2023-01-30T17:31:20;21.73;;;4.80;;
37973;SDS011;23796;51.458;7.000;2023-01-30T17:33:46;20.70;;;5.22;;
37973;SDS011;23796;51.458;7.000;2023-01-30T17:36:18;23.08;;;7.75;;
37973;SDS011;23796;51.458;7.000;2023-01-30T17:38:47;21.42;;;6.32;;
37973;SDS011;23796;51.458;7.000;2023-01-30T17:41:19;18.20;;;5.38;;
37973;SDS011;23796;51.458;7.000;2023-01-30T17:43:54;14.45;;;4.15;;
37973;SDS011;23796;51.458;7.000;2023-01-30T17:46:21;21.80;;;5.32;;
37973;SDS011;23796;51.458;7.000;2023-01-30T17:48:50;15.45;;;4.18;;
37973;SDS011;23796;51.458;7.000;2023-01-30T17:51:16;17.02;;;4.45;;
37973;SDS011;23796;51.458;7.000;2023-01-30T17:53:44;17.02;;;4.82;;
37973;SDS011;23796;51.458;7.000;2023-01-30T17:56:17;18.83;;;5.50;;
37973;SDS011;23796;51.458;7.000;2023-01-30T17:58:52;17.35;;;4.88;;
37973;SDS011;23796;51.458;7.000;2023-01-30T18:01:18;25.05;;;6.93;;
37973;SDS011;23796;51.458;7.000;2023-01-30T18:03:47;22.83;;;6.07;;
37973;SDS011;23796;51.458;7.000;2023-01-30T18:06:22;20.40;;;5.03;;
37973;SDS011;23796;51.458;7.000;2023-01-30T18:24:14;16.15;;;4.45;;
37973;SDS011;23796;51.458;7.000;2023-01-30T18:26:40;18.95;;;4.95;;
37973;SDS011;23796;51.458;7.000;2023-01-30T18:29:06;17.40;;;4.53;;
37973;SDS011;23796;51.458;7.000;2023-01-30T18:31:38;15.23;;;4.65;;
37973;SDS011;23796;51.458;7.000;2023-01-30T18:34:04;19.20;;;5.88;;
37973;SDS011;23796;51.458;7.000;2023-01-30T18:36:35;23.42;;;5.75;;
37973;SDS011;23796;51.458;7.000;2023-01-30T18:39:05;16.73;;;5.50;;
37973;SDS011;23796;51.458;7.000;2023-01-30T18:41:31;19.27;;;4.95;;
37973;SDS011;23796;51.458;7.000;2023-01-30T18:44:02;17.58;;;4.30;;
37973;SDS011;23796;51.458;7.000;2023-01-30T18:46:29;17.35;;;4.07;;
37973;SDS011;23796;51.458;7.000;2023-01-30T18:48:55;18.13;;;5.57;;
37973;SDS011;23796;51.458;7.000;2023-01-30T18:51:22;17.23;;;4.60;;
37973;SDS011;23796;51.458;7.000;2023-01-30T18:53:56;17.92;;;4.05;;
37973;SDS011;23796;51.458;7.000;2023-01-30T18:56:31;17.83;;;4.17;;